Time;durP1;ratioP1;P1;durP2;ratioP2;P2;SDS_P1;SDS_P2;PMS_P1;PMS_P2;Temp;Humidity;BMP_temperature;BMP_pressure;BME280_temperature;BME280_humidity;BME280_pressure;Samples;Min_cycle;Max_cycle;Signal;HPM_P1;HPM_P2
2020/12/01 06:02:04;;;;;;;33.70;15.83;;;2.30;97.30;;;;;;5333578;23;20607;-71
2020/12/01 06:04:31;;;;;;;36.33;16.23;;;2.30;97.30;;;;;;4917006;29;20771;-71
2020/12/01 06:07:04;;;;;;;34.27;16.30;;;2.30;97.30;;;;;;4917442;29;20443;-70
2020/12/01 06:09:54;;;;;;;36.60;16.30;;;2.30;97.30;;;;;;4918555;29;20951;-70
2020/12/01 06:12:31;;;;;;;31.23;15.53;;;2.30;97.30;;;;;;4902023;29;20444;-71
2020/12/01 06:15:10;;;;;;;35.60;16.40;;;2.30;97.30;;;;;;4899344;29;20536;-70
2020/12/01 06:17:39;;;;;;;32.77;15.50;;;2.30;97.30;;;;;;4899308;29;20522;-71
2020/12/01 06:20:34;;;;;;;29.87;15.30;;;2.30;97.30;;;;;;4899368;29;20421;-71
2020/12/01 06:23:27;;;;;;;31.50;14.10;;;2.30;97.30;;;;;;4899233;29;20421;-71
2020/12/01 06:26:11;;;;;;;32.70;14.70;;;2.30;97.30;;;;;;4898770;29;20579;-71
2020/12/01 06:28:58;;;;;;;32.20;15.50;;;2.30;97.30;;;;;;4899163;29;20465;-69
2020/12/01 06:31:38;;;;;;;58.10;16.07;;;2.30;97.30;;;;;;4889722;29;20511;-71
2020/12/01 06:34:22;;;;;;;33.13;15.87;;;2.30;97.30;;;;;;4881330;29;20418;-71
2020/12/01 06:37:18;;;;;;;28.20;14.47;;;2.30;97.30;;;;;;4881152;29;20564;-70
2020/12/01 06:40:08;;;;;;;35.07;14.90;;;2.30;97.30;;;;;;4881101;29;20418;-70
2020/12/01 06:42:46;;;;;;;33.87;14.80;;;2.30;97.30;;;;;;4880764;29;20443;-70
2020/12/01 06:45:48;;;;;;;34.00;14.97;;;2.30;97.30;;;;;;4880984;29;20410;-70
2020/12/01 06:48:16;;;;;;;27.80;14.17;;;2.30;97.30;;;;;;4879685;29;20464;-70
2020/12/01 06:50:47;;;;;;;33.53;14.30;;;2.40;97.30;;;;;;4881450;29;20738;-70
2020/12/01 06:53:22;;;;;;;33.03;15.63;;;2.40;97.30;;;;;;4881452;29;20494;-70
2020/12/01 06:55:51;;;;;;;29.57;13.90;;;2.40;97.30;;;;;;4880226;29;20422;-69
2020/12/01 06:58:19;;;;;;;29.93;15.17;;;2.40;97.30;;;;;;4881137;29;21059;-70
2020/12/01 07:00:45;;;;;;;27.10;13.80;;;2.40;97.30;;;;;;4879967;29;20533;-70
2020/12/01 07:03:11;;;;;;;30.87;14.50;;;2.40;97.30;;;;;;4881275;29;20514;-71
2020/12/01 07:05:37;;;;;;;32.47;15.43;;;2.40;97.30;;;;;;4879968;29;20429;-70
2020/12/01 07:08:14;;;;;;;28.13;14.37;;;2.40;97.30;;;;;;4881110;29;20414;-71
2020/12/01 07:10:40;;;;;;;24.60;12.67;;;2.40;97.30;;;;;;4880024;29;20442;-70
2020/12/01 07:13:20;;;;;;;31.80;14.20;;;2.40;97.30;;;;;;4881053;29;20471;-70
2020/12/01 07:15:50;;;;;;;26.63;13.37;;;2.40;97.30;;;;;;4880791;29;20490;-71
2020/12/01 07:18:22;;;;;;;32.77;14.50;;;2.40;97.30;;;;;;4879717;29;20465;-71
2020/12/01 07:21:16;;;;;;;36.00;14.43;;;2.40;97.30;;;;;;4879953;29;20820;-70
2020/12/01 07:24:06;;;;;;;30.20;14.10;;;2.40;97.30;;;;;;4881263;29;20836;-71
2020/12/01 07:26:55;;;;;;;27.70;14.07;;;2.40;97.30;;;;;;4879663;29;20482;-70
2020/12/01 07:29:32;;;;;;;37.30;15.80;;;2.40;97.30;;;;;;4879424;29;20433;-70
2020/12/01 07:32:15;;;;;;;29.80;13.70;;;2.40;97.30;;;;;;4885334;29;20457;-70
2020/12/01 07:34:42;;;;;;;33.33;14.30;;;2.40;97.30;;;;;;4886538;29;20421;-70
2020/12/01 07:37:26;;;;;;;28.50;14.17;;;2.40;97.30;;;;;;4889804;29;20454;-70
2020/12/01 07:39:57;;;;;;;31.37;14.47;;;2.40;97.30;;;;;;4886515;29;20425;-70
2020/12/01 07:42:26;;;;;;;27.07;13.57;;;2.40;97.30;;;;;;4887010;29;20497;-70
2020/12/01 07:44:51;;;;;;;34.17;14.30;;;2.40;97.30;;;;;;4886683;29;20426;-70
2020/12/01 07:47:20;;;;;;;32.63;14.00;;;2.40;97.30;;;;;;4890063;29;20786;-70
2020/12/01 07:50:02;;;;;;;28.40;14.13;;;2.50;97.30;;;;;;4896251;29;20187;-70
2020/12/01 07:52:37;;;;;;;34.10;15.00;;;2.50;97.30;;;;;;4888105;29;20448;-70
2020/12/01 07:55:20;;;;;;;30.80;13.87;;;2.50;97.30;;;;;;4885860;29;20466;-70
2020/12/01 07:57:56;;;;;;;27.70;13.20;;;2.50;97.30;;;;;;4887475;29;20456;-70
2020/12/01 08:00:22;;;;;;;31.27;14.67;;;2.50;97.30;;;;;;4886046;29;20831;-70
2020/12/01 08:02:48;;;;;;;29.83;13.73;;;2.50;97.30;;;;;;4886948;29;20437;-70
2020/12/01 08:05:18;;;;;;;30.37;13.13;;;2.60;97.30;;;;;;4888411;29;20185;-70
2020/12/01 08:07:53;;;;;;;27.93;13.13;;;2.50;97.30;;;;;;4895089;29;20445;-69
2020/12/01 08:10:19;;;;;;;26.30;13.00;;;2.50;97.30;;;;;;4925156;29;21002;-70
2020/12/01 08:12:48;;;;;;;29.23;13.73;;;2.60;97.30;;;;;;4897789;29;20417;-70
2020/12/01 08:15:22;;;;;;;27.50;13.13;;;2.60;97.30;;;;;;4897015;29;20177;-70
2020/12/01 08:17:50;;;;;;;32.07;14.03;;;2.60;97.30;;;;;;4898480;29;20473;-70
2020/12/01 08:20:23;;;;;;;29.80;14.83;;;2.60;97.30;;;;;;4897096;29;20418;-70
2020/12/01 08:23:13;;;;;;;34.87;15.73;;;2.60;97.30;;;;;;4897036;29;20970;-69
2020/12/01 08:25:39;;;;;;;29.43;14.17;;;2.60;97.30;;;;;;4896693;29;20489;-74
2020/12/01 08:28:05;;;;;;;26.10;13.77;;;2.60;97.30;;;;;;4895435;29;20450;-73
2020/12/01 08:31:06;;;;;;;28.40;12.60;;;2.60;97.30;;;;;;4896974;29;20422;-72
2020/12/01 08:33:48;;;;;;;29.00;14.37;;;2.60;97.30;;;;;;4895651;29;20421;-71
2020/12/01 08:36:38;;;;;;;29.97;13.50;;;2.60;97.30;;;;;;4896870;29;20414;-70
2020/12/01 08:39:22;;;;;;;29.90;14.50;;;2.60;97.30;;;;;;4893788;29;20473;-70
2020/12/01 08:42:01;;;;;;;28.37;13.13;;;2.60;97.30;;;;;;4897843;29;20430;-69
2020/12/01 08:44:56;;;;;;;27.77;14.53;;;2.70;97.30;;;;;;4896060;29;20425;-70
2020/12/01 08:47:25;;;;;;;29.33;13.60;;;2.70;97.30;;;;;;4896688;29;20430;-68
2020/12/01 08:49:51;;;;;;;30.93;14.40;;;2.70;97.30;;;;;;4897583;29;20409;-70
2020/12/01 08:52:33;;;;;;;27.57;12.83;;;2.70;97.30;;;;;;4897141;29;20508;-70
2020/12/01 08:55:27;;;;;;;30.77;13.13;;;2.80;97.30;;;;;;4896299;29;20475;-69
2020/12/01 08:58:09;;;;;;;30.00;14.57;;;2.80;97.30;;;;;;4906944;29;20481;-70
2020/12/01 09:00:35;;;;;;;31.70;13.53;;;2.80;97.30;;;;;;4897409;29;20497;-70
2020/12/01 09:03:10;;;;;;;27.77;13.63;;;2.80;97.30;;;;;;4896448;29;20456;-74
2020/12/01 09:05:45;;;;;;;26.60;13.70;;;2.80;97.30;;;;;;4895544;29;20779;-70
2020/12/01 09:11:09;;;;;;;32.83;14.63;;;2.90;97.30;;;;;;4890797;29;20437;-70
2020/12/01 09:13:39;;;;;;;29.30;13.47;;;2.90;97.30;;;;;;4882182;29;20482;-69
2020/12/01 09:16:31;;;;;;;27.17;13.30;;;2.90;97.30;;;;;;4879372;29;20789;-68
2020/12/01 09:22:12;;;;;;;31.00;13.80;;;3.00;97.30;;;;;;4898332;29;20951;-76
2020/12/01 09:24:38;;;;;;;29.07;12.90;;;3.00;97.30;;;;;;4901363;29;20401;-81
2020/12/01 09:27:15;;;;;;;32.53;14.33;;;3.00;97.30;;;;;;4897784;29;20444;-70
2020/12/01 09:29:47;;;;;;;28.57;13.20;;;3.00;97.30;;;;;;4897671;29;20402;-68
2020/12/01 09:32:20;;;;;;;26.00;13.00;;;3.00;97.30;;;;;;4882401;29;20442;-71
2020/12/01 09:34:46;;;;;;;31.60;14.20;;;3.00;97.30;;;;;;4879820;29;20419;-70
2020/12/01 09:37:12;;;;;;;29.13;13.80;;;3.00;97.30;;;;;;4886439;29;20462;-73
2020/12/01 09:39:38;;;;;;;27.60;13.47;;;3.10;97.30;;;;;;4890749;29;20174;-72
2020/12/01 09:42:23;;;;;;;28.37;13.17;;;3.10;97.30;;;;;;4885818;29;20474;-73
2020/12/01 09:47:24;;;;;;;29.30;13.70;;;3.10;97.30;;;;;;4892244;29;21030;-72
2020/12/01 09:49:50;;;;;;;29.67;13.67;;;3.10;97.30;;;;;;4891265;29;20173;-72
2020/12/01 09:52:21;;;;;;;25.43;13.10;;;3.10;97.30;;;;;;4889207;29;20974;-77
2020/12/01 09:55:00;;;;;;;29.20;13.50;;;3.10;97.30;;;;;;4890690;29;20174;-74
2020/12/01 10:06:16;;;;;;;31.87;15.57;;;3.20;97.30;;;;;;4882354;29;21174;-74
2020/12/01 10:18:37;;;;;;;29.20;12.93;;;3.40;97.30;;;;;;4891463;29;20445;-73
2020/12/01 10:32:07;;;;;;;30.30;13.40;;;3.40;97.30;;;;;;4900708;29;20456;-72
2020/12/01 10:34:50;;;;;;;27.20;13.93;;;3.40;97.30;;;;;;4899013;29;20417;-73
2020/12/01 10:37:16;;;;;;;28.60;12.33;;;3.40;97.30;;;;;;4899319;29;20485;-74
2020/12/01 10:39:41;;;;;;;28.97;13.90;;;3.40;97.30;;;;;;4899468;29;20446;-73
2020/12/01 10:42:09;;;;;;;27.97;14.07;;;3.50;97.30;;;;;;4899052;29;20679;-76
2020/12/01 10:44:35;;;;;;;29.50;13.77;;;3.50;97.30;;;;;;4899291;29;21023;-70
2020/12/01 10:47:01;;;;;;;34.47;13.67;;;3.50;97.30;;;;;;4899153;29;20457;-71
2020/12/01 10:49:27;;;;;;;27.77;13.80;;;3.50;97.30;;;;;;4899728;29;20453;-73
2020/12/01 10:51:52;;;;;;;31.73;14.33;;;3.50;97.30;;;;;;4899431;29;20460;-71
2020/12/01 10:54:18;;;;;;;30.83;14.80;;;3.50;97.30;;;;;;4898364;29;20426;-73
2020/12/01 10:56:48;;;;;;;30.87;16.10;;;3.50;97.30;;;;;;4900047;29;20197;-75
2020/12/01 10:59:15;;;;;;;30.67;14.43;;;3.50;97.30;;;;;;4899933;29;20424;-74
2020/12/01 11:01:40;;;;;;;28.37;14.20;;;3.50;97.30;;;;;;4898733;29;20477;-76
2020/12/01 11:04:06;;;;;;;31.80;14.43;;;3.50;97.30;;;;;;4898739;29;20418;-74
2020/12/01 11:06:32;;;;;;;30.27;13.77;;;3.50;97.30;;;;;;4899736;29;20205;-72
2020/12/01 11:08:58;;;;;;;29.13;13.27;;;3.50;97.30;;;;;;4898989;29;20276;-72
2020/12/01 11:11:23;;;;;;;29.70;14.67;;;3.50;97.30;;;;;;4899728;29;20197;-71
2020/12/01 11:13:49;;;;;;;31.50;14.73;;;3.50;97.30;;;;;;4898229;29;20181;-71
2020/12/01 11:16:15;;;;;;;30.03;14.70;;;3.50;97.30;;;;;;4899983;29;20189;-73
2020/12/01 11:18:41;;;;;;;31.00;14.53;;;3.50;97.30;;;;;;4898338;29;20517;-72
2020/12/01 11:21:07;;;;;;;31.03;14.33;;;3.50;97.30;;;;;;4898711;29;20584;-72
2020/12/01 11:23:32;;;;;;;30.17;14.67;;;3.50;97.30;;;;;;4899682;29;20173;-73
2020/12/01 11:25:58;;;;;;;40.70;16.10;;;3.50;97.30;;;;;;4898357;29;20181;-75
2020/12/01 11:28:24;;;;;;;31.73;14.20;;;3.50;97.30;;;;;;4897956;29;20184;-69
2020/12/01 11:30:53;;;;;;;34.40;15.40;;;3.50;97.30;;;;;;4899287;29;20276;-70
2020/12/01 11:33:18;;;;;;;35.50;16.70;;;3.50;97.30;;;;;;4897498;29;20177;-69
2020/12/01 11:35:44;;;;;;;35.00;15.57;;;3.60;97.30;;;;;;4899051;29;20428;-73
2020/12/01 11:38:10;;;;;;;30.10;15.40;;;3.60;97.30;;;;;;4897572;29;20233;-72
2020/12/01 11:40:35;;;;;;;32.60;14.30;;;3.70;97.30;;;;;;4897077;29;20306;-68
2020/12/01 11:43:01;;;;;;;34.13;17.43;;;3.60;97.30;;;;;;4898473;29;20233;-70
2020/12/01 11:45:27;;;;;;;37.27;16.33;;;3.60;97.30;;;;;;4898845;29;20263;-68
2020/12/01 11:47:53;;;;;;;33.90;14.70;;;3.70;97.30;;;;;;4898238;29;20240;-69
2020/12/01 11:50:19;;;;;;;34.03;15.93;;;3.60;97.30;;;;;;4899047;29;20594;-70
2020/12/01 11:52:47;;;;;;;34.00;15.93;;;3.70;97.30;;;;;;4897606;29;20855;-70
2020/12/01 11:55:13;;;;;;;31.07;14.83;;;3.70;97.30;;;;;;4898695;29;20418;-73
2020/12/01 11:57:39;;;;;;;37.33;16.87;;;3.70;97.30;;;;;;4896991;29;20472;-74
2020/12/01 12:00:07;;;;;;;37.47;16.87;;;3.70;97.30;;;;;;4897787;29;20417;-73
2020/12/01 12:02:32;;;;;;;35.57;16.73;;;3.70;97.30;;;;;;4897333;29;20281;-69
2020/12/01 12:04:58;;;;;;;35.43;15.90;;;3.70;97.30;;;;;;4898190;29;20836;-69
2020/12/01 12:07:26;;;;;;;34.23;15.90;;;3.70;97.30;;;;;;4899238;29;20527;-73
2020/12/01 12:09:52;;;;;;;33.80;15.77;;;3.70;97.30;;;;;;4893243;29;20200;-76
2020/12/01 12:12:18;;;;;;;38.83;16.90;;;3.70;97.30;;;;;;4878713;29;20450;-76
2020/12/01 12:14:43;;;;;;;36.03;16.23;;;3.70;97.30;;;;;;4882554;29;20189;-77
2020/12/01 12:17:09;;;;;;;35.27;16.47;;;3.50;97.30;;;;;;4878681;29;20202;-77
2020/12/01 12:19:35;;;;;;;36.73;17.10;;;3.50;97.30;;;;;;4892948;29;20182;-77
2020/12/01 12:22:00;;;;;;;37.13;16.90;;;3.40;97.30;;;;;;4897029;29;20201;-76
2020/12/01 12:24:26;;;;;;;31.73;14.90;;;3.40;97.30;;;;;;4897829;29;20188;-77
2020/12/01 12:26:52;;;;;;;33.80;16.57;;;3.40;97.30;;;;;;4897237;29;20193;-76
2020/12/01 12:29:17;;;;;;;41.27;17.40;;;3.40;97.30;;;;;;4896969;29;20702;-76
2020/12/01 12:31:43;;;;;;;38.30;16.43;;;3.50;97.30;;;;;;4897009;29;20257;-76
2020/12/01 12:34:09;;;;;;;36.13;17.30;;;3.50;97.30;;;;;;4893642;29;20186;-75
2020/12/01 12:36:35;;;;;;;41.13;17.20;;;3.60;97.30;;;;;;4894054;29;20277;-77
2020/12/01 12:39:00;;;;;;;31.27;15.87;;;3.60;97.30;;;;;;4896648;29;20584;-75
2020/12/01 12:41:26;;;;;;;38.03;16.27;;;3.60;97.30;;;;;;4899223;29;20209;-81
2020/12/01 12:43:52;;;;;;;41.60;16.20;;;3.70;97.30;;;;;;4898691;29;20181;-77
2020/12/01 12:46:18;;;;;;;37.23;16.90;;;3.60;97.30;;;;;;4898666;29;20504;-83
2020/12/01 12:48:43;;;;;;;39.93;18.07;;;3.60;97.30;;;;;;4898461;29;20204;-77
2020/12/01 12:51:09;;;;;;;35.50;15.80;;;3.70;97.30;;;;;;4907108;29;20228;-80
2020/12/01 12:53:35;;;;;;;34.33;14.80;;;3.60;97.30;;;;;;4909283;29;20192;-75
2020/12/01 12:56:00;;;;;;;39.37;17.50;;;3.50;97.30;;;;;;4896636;29;20189;-75
2020/12/01 12:58:26;;;;;;;40.03;17.00;;;3.50;97.30;;;;;;4902849;29;20212;-80
2020/12/01 13:00:52;;;;;;;36.67;16.10;;;3.40;97.30;;;;;;4905417;29;20216;-78
2020/12/01 13:03:17;;;;;;;39.73;16.73;;;3.40;97.30;;;;;;4906167;29;20189;-82
2020/12/01 13:05:44;;;;;;;37.40;15.77;;;3.50;97.30;;;;;;4899371;29;20181;-76
2020/12/01 13:08:09;;;;;;;37.57;15.90;;;3.50;97.30;;;;;;4902346;29;20418;-81
2020/12/01 13:10:36;;;;;;;44.60;18.43;;;3.50;97.30;;;;;;4905004;29;20505;-82
2020/12/01 13:13:01;;;;;;;38.07;16.37;;;3.60;97.30;;;;;;4903264;29;20184;-83
2020/12/01 13:15:28;;;;;;;36.90;15.87;;;3.50;97.30;;;;;;4906883;29;20434;-81
2020/12/01 13:17:54;;;;;;;35.47;16.07;;;3.50;97.30;;;;;;4890168;29;20209;-82
2020/12/01 13:20:23;;;;;;;45.30;19.63;;;3.50;97.30;;;;;;4905904;29;20888;-83
2020/12/01 13:22:50;;;;;;;39.00;16.93;;;3.60;97.30;;;;;;4901199;29;20189;-83
2020/12/01 13:25:16;;;;;;;39.00;17.83;;;3.60;97.30;;;;;;4901852;29;20421;-80
2020/12/01 13:27:41;;;;;;;39.27;16.77;;;3.60;97.30;;;;;;4902568;29;20867;-83
2020/12/01 13:30:09;;;;;;;40.73;16.87;;;3.60;97.30;;;;;;4902780;29;20449;-83
2020/12/01 13:32:34;;;;;;;38.90;17.23;;;3.60;97.30;;;;;;4902054;29;20205;-84
2020/12/01 13:35:00;;;;;;;36.30;16.47;;;3.70;97.30;;;;;;4902286;29;20831;-84
2020/12/01 13:37:26;;;;;;;38.30;16.40;;;3.60;97.30;;;;;;4900799;29;20208;-84
2020/12/01 13:39:52;;;;;;;39.93;17.40;;;3.70;97.30;;;;;;4900669;29;20516;-83
2020/12/01 13:42:18;;;;;;;41.40;17.93;;;3.60;97.30;;;;;;4896808;29;20595;-84
2020/12/01 13:44:44;;;;;;;41.30;16.57;;;3.70;97.30;;;;;;4897281;29;20537;-84
2020/12/01 13:47:09;;;;;;;38.70;17.07;;;3.70;97.30;;;;;;4881723;29;20190;-84
2020/12/01 13:49:35;;;;;;;40.37;17.60;;;3.80;97.30;;;;;;4898252;29;20649;-84
2020/12/01 13:52:01;;;;;;;37.57;16.90;;;3.70;97.30;;;;;;4884832;29;20280;-80
2020/12/01 13:54:27;;;;;;;40.70;17.87;;;3.80;97.30;;;;;;4901169;29;20182;-84
2020/12/01 13:56:53;;;;;;;42.87;16.93;;;3.80;97.30;;;;;;4899290;29;20201;-84
2020/12/01 13:59:18;;;;;;;47.03;18.40;;;3.80;97.30;;;;;;4898342;29;20437;-83
2020/12/01 14:01:44;;;;;;;37.60;15.93;;;3.80;97.30;;;;;;4884404;29;20469;-83
2020/12/01 14:04:10;;;;;;;42.63;17.67;;;3.80;97.30;;;;;;4897132;29;20693;-84
2020/12/01 14:06:36;;;;;;;35.53;15.97;;;3.90;97.30;;;;;;4897268;29;20190;-84
2020/12/01 14:09:02;;;;;;;38.90;16.90;;;3.90;97.30;;;;;;4897435;29;20422;-84
2020/12/01 14:11:28;;;;;;;40.93;17.30;;;4.00;97.30;;;;;;4897106;29;20660;-84
2020/12/01 14:13:55;;;;;;;41.93;18.23;;;3.90;97.30;;;;;;4898149;29;20442;-83
2020/12/01 14:16:21;;;;;;;42.83;18.90;;;3.80;97.30;;;;;;4897934;29;20182;-84
2020/12/01 14:18:48;;;;;;;41.07;17.70;;;3.80;97.30;;;;;;4897319;29;20605;-84
2020/12/01 14:21:14;;;;;;;39.90;17.50;;;3.80;97.30;;;;;;4897371;29;20466;-84
2020/12/01 14:23:39;;;;;;;44.27;19.00;;;3.90;97.30;;;;;;4897141;29;20422;-84
2020/12/01 14:26:05;;;;;;;48.50;20.53;;;3.80;97.30;;;;;;4896246;29;20425;-84
2020/12/01 14:28:31;;;;;;;46.77;18.50;;;3.70;97.30;;;;;;4900016;29;20264;-84
2020/12/01 14:30:57;;;;;;;43.30;18.07;;;3.70;97.30;;;;;;4900004;29;20579;-84
2020/12/01 14:33:23;;;;;;;44.00;19.03;;;3.60;97.30;;;;;;4899884;29;20425;-84
2020/12/01 14:35:49;;;;;;;50.87;18.60;;;3.70;97.30;;;;;;4901329;29;20429;-83
2020/12/01 14:38:16;;;;;;;42.63;19.20;;;3.70;97.30;;;;;;4899733;29;20205;-84
2020/12/01 14:40:42;;;;;;;48.57;19.73;;;3.60;97.30;;;;;;4899633;29;20441;-85
2020/12/01 14:43:13;;;;;;;45.13;18.50;;;3.50;97.30;;;;;;4899518;29;20437;-84
2020/12/01 14:45:40;;;;;;;41.80;17.87;;;3.50;97.30;;;;;;4887264;29;20174;-84
2020/12/01 14:48:56;;;;;;;44.10;18.47;;;3.60;97.30;;;;;;4887928;29;20526;-84
2020/12/01 14:51:31;;;;;;;44.30;18.10;;;3.60;97.30;;;;;;4884216;29;20474;-83
2020/12/01 14:54:11;;;;;;;49.17;20.17;;;3.70;97.30;;;;;;4888248;29;20430;-83
2020/12/01 14:56:45;;;;;;;44.80;19.73;;;3.80;97.30;;;;;;4892064;29;20473;-84
2020/12/01 14:59:21;;;;;;;46.17;19.80;;;3.70;97.30;;;;;;4886127;29;20426;-84
2020/12/01 15:01:50;;;;;;;43.27;18.60;;;3.80;97.30;;;;;;4881365;29;20481;-84
2020/12/01 15:04:37;;;;;;;49.60;19.73;;;3.70;97.30;;;;;;4881732;29;20414;-83
2020/12/01 15:07:27;;;;;;;41.83;18.90;;;3.80;97.30;;;;;;4884451;29;20429;-84
2020/12/01 15:09:53;;;;;;;41.57;18.37;;;3.80;97.30;;;;;;4891605;29;20447;-83
2020/12/01 15:12:39;;;;;;;51.43;21.97;;;3.70;97.30;;;;;;4882675;29;20446;-83
2020/12/01 15:15:18;;;;;;;46.77;20.87;;;3.70;97.30;;;;;;4889574;29;20177;-83
2020/12/01 15:17:44;;;;;;;40.17;17.10;;;3.70;97.30;;;;;;4895527;29;20827;-83
2020/12/01 15:20:16;;;;;;;52.00;19.80;;;3.70;97.30;;;;;;4889947;29;20554;-83
2020/12/01 15:23:07;;;;;;;44.70;19.20;;;3.70;97.30;;;;;;4891345;29;20422;-83
2020/12/01 15:25:33;;;;;;;46.60;19.13;;;3.70;97.30;;;;;;4887441;29;20415;-84
2020/12/01 15:28:08;;;;;;;50.27;21.00;;;3.60;97.30;;;;;;4891511;29;20430;-84
2020/12/01 15:30:34;;;;;;;56.30;20.53;;;3.60;97.30;;;;;;4893071;29;20422;-84
2020/12/01 15:33:01;;;;;;;48.10;20.10;;;3.40;97.30;;;;;;4893997;29;20430;-83
2020/12/01 15:35:33;;;;;;;51.10;20.63;;;3.40;97.30;;;;;;4892336;29;20470;-83
2020/12/01 15:38:21;;;;;;;48.87;20.20;;;3.40;97.30;;;;;;4894323;29;20525;-83
2020/12/01 15:40:53;;;;;;;48.00;21.20;;;3.40;97.30;;;;;;4892425;29;20443;-84
2020/12/01 15:43:37;;;;;;;46.53;19.87;;;3.40;97.30;;;;;;4886543;29;20434;-82
2020/12/01 15:46:19;;;;;;;49.60;19.87;;;3.30;97.30;;;;;;4881335;29;20423;-84
2020/12/01 15:48:46;;;;;;;49.73;20.20;;;3.20;97.30;;;;;;4881518;29;20430;-83
2020/12/01 15:51:30;;;;;;;48.37;21.67;;;3.20;97.30;;;;;;4880919;29;20445;-84
2020/12/01 15:54:34;;;;;;;48.13;19.83;;;3.20;97.30;;;;;;4881110;29;20429;-83
2020/12/01 15:57:24;;;;;;;45.70;18.90;;;3.20;97.30;;;;;;4891043;29;20470;-84
2020/12/01 16:00:08;;;;;;;51.50;20.23;;;3.20;97.30;;;;;;4892491;29;20410;-83
2020/12/01 16:03:08;;;;;;;44.07;21.07;;;3.30;97.30;;;;;;4889582;29;20944;-84
2020/12/01 16:05:45;;;;;;;48.47;20.93;;;3.30;97.30;;;;;;4889550;29;20775;-84
2020/12/01 16:08:27;;;;;;;45.47;20.77;;;3.30;97.30;;;;;;4884176;29;20438;-83
2020/12/01 16:11:23;;;;;;;47.93;21.00;;;3.30;97.30;;;;;;4887612;29;20441;-83
2020/12/01 16:14:26;;;;;;;51.97;19.10;;;3.40;97.30;;;;;;4884624;29;20509;-84
2020/12/01 16:17:10;;;;;;;49.60;20.13;;;3.40;97.30;;;;;;4891914;29;20458;-84
2020/12/01 16:19:49;;;;;;;45.10;19.40;;;3.40;97.30;;;;;;4898809;29;20412;-83
2020/12/01 16:22:17;;;;;;;49.80;20.53;;;3.40;97.30;;;;;;4891679;29;20986;-84
2020/12/01 16:24:42;;;;;;;49.23;19.90;;;3.50;97.30;;;;;;4888316;29;20469;-83
2020/12/01 16:27:08;;;;;;;41.47;18.23;;;3.50;97.30;;;;;;4889182;29;20774;-83
2020/12/01 16:30:18;;;;;;;43.17;20.40;;;3.50;97.30;;;;;;4898713;29;20596;-83
2020/12/01 16:32:44;;;;;;;44.97;17.63;;;3.60;97.30;;;;;;4874388;29;20682;-84
2020/12/01 16:35:11;;;;;;;45.50;18.80;;;3.50;97.30;;;;;;4899628;29;20469;-84
2020/12/01 16:37:49;;;;;;;52.00;21.60;;;3.60;97.30;;;;;;4898682;29;20472;-84
2020/12/01 16:40:20;;;;;;;46.53;18.63;;;3.60;97.30;;;;;;4899936;29;20460;-84
2020/12/01 16:42:55;;;;;;;47.80;20.67;;;3.60;97.30;;;;;;4925161;29;20452;-84
2020/12/01 16:45:26;;;;;;;44.30;18.03;;;3.60;97.30;;;;;;4931456;29;20432;-83
2020/12/01 16:48:06;;;;;;;45.97;20.47;;;3.60;97.30;;;;;;4898373;29;20422;-84
2020/12/01 16:50:47;;;;;;;50.07;20.60;;;3.60;97.30;;;;;;4898144;29;20421;-84
2020/12/01 16:53:28;;;;;;;43.23;19.77;;;3.60;97.30;;;;;;4898194;29;20520;-84
2020/12/01 16:56:08;;;;;;;51.13;20.90;;;3.60;97.30;;;;;;4898726;29;20424;-84
2020/12/01 16:59:05;;;;;;;47.63;20.80;;;3.60;97.30;;;;;;5136296;27;20564;-83
2020/12/01 17:01:45;;;;;;;45.17;20.60;;;3.60;97.30;;;;;;5124764;28;20442;-83
2020/12/01 17:04:44;;;;;;;53.87;20.93;;;3.60;97.30;;;;;;5135319;28;20407;-83
2020/12/01 17:07:16;;;;;;;43.37;19.97;;;3.60;97.30;;;;;;5114632;28;20408;-84
2020/12/01 17:09:49;;;;;;;41.53;19.47;;;3.60;97.30;;;;;;5119718;28;20412;-83
2020/12/01 17:12:37;;;;;;;42.97;19.93;;;3.60;97.30;;;;;;5141405;28;20468;-83
2020/12/01 17:15:21;;;;;;;56.90;21.77;;;3.60;97.30;;;;;;5123079;28;20404;-82
2020/12/01 17:18:00;;;;;;;51.27;21.17;;;3.60;97.30;;;;;;5143288;28;20502;-82
2020/12/01 17:20:27;;;;;;;44.93;20.27;;;3.60;97.30;;;;;;5140112;28;20417;-82
2020/12/01 17:22:56;;;;;;;47.47;20.33;;;3.60;97.30;;;;;;5145084;28;20412;-82
2020/12/01 17:25:27;;;;;;;54.93;21.80;;;3.60;97.30;;;;;;5144615;28;20474;-82
2020/12/01 17:28:07;;;;;;;46.80;21.13;;;3.60;97.30;;;;;;5144330;28;20439;-83
2020/12/01 17:31:10;;;;;;;46.73;20.30;;;3.50;97.30;;;;;;5144037;28;20414;-83
2020/12/01 17:34:01;;;;;;;43.57;20.17;;;3.50;97.30;;;;;;5137018;28;20440;-83
2020/12/01 17:36:49;;;;;;;44.80;20.57;;;3.60;97.30;;;;;;5142633;28;20418;-82
2020/12/01 17:39:40;;;;;;;47.80;19.93;;;3.60;97.30;;;;;;5143033;28;20456;-82
2020/12/01 17:42:14;;;;;;;44.93;19.60;;;3.60;97.30;;;;;;5142870;28;20439;-82
2020/12/01 17:44:52;;;;;;;42.43;19.20;;;3.60;97.30;;;;;;5141984;28;20467;-83
2020/12/01 17:47:46;;;;;;;48.17;20.30;;;3.60;97.30;;;;;;5141208;28;20497;-82
2020/12/01 17:50:20;;;;;;;48.33;21.47;;;3.60;97.30;;;;;;5139525;28;20569;-82
2020/12/01 17:53:15;;;;;;;44.07;19.90;;;3.60;97.30;;;;;;5141742;28;20406;-82
2020/12/01 17:55:43;;;;;;;44.90;19.87;;;3.60;97.30;;;;;;5128524;28;20495;-82
2020/12/01 17:58:13;;;;;;;42.97;19.43;;;3.60;97.30;;;;;;5140275;27;20458;-82
2020/12/01 18:00:39;;;;;;;46.93;20.90;;;3.60;97.30;;;;;;5141135;27;20502;-82
2020/12/01 18:03:17;;;;;;;47.10;21.30;;;3.60;97.30;;;;;;5139571;28;20415;-82
2020/12/01 18:05:49;;;;;;;51.73;21.17;;;3.60;97.30;;;;;;5141246;28;20186;-83
2020/12/01 18:08:21;;;;;;;50.97;23.10;;;3.60;97.30;;;;;;5132497;28;20423;-82
2020/12/01 18:11:11;;;;;;;47.53;21.20;;;3.60;97.30;;;;;;5125532;28;20435;-82
2020/12/01 18:14:08;;;;;;;51.57;20.40;;;3.60;97.30;;;;;;5125990;28;20423;-82
2020/12/01 18:16:50;;;;;;;50.77;22.93;;;3.60;97.30;;;;;;5124554;28;20423;-82
2020/12/01 18:19:48;;;;;;;42.67;22.13;;;3.70;97.30;;;;;;5125039;28;20404;-82
2020/12/01 18:22:32;;;;;;;46.40;21.23;;;3.70;97.30;;;;;;5072728;28;20459;-82
2020/12/01 18:25:21;;;;;;;40.97;20.60;;;3.70;97.30;;;;;;5124905;28;20407;-82
2020/12/01 18:27:52;;;;;;;42.83;20.17;;;3.70;97.30;;;;;;5124909;28;20793;-82
2020/12/01 18:30:29;;;;;;;46.63;20.27;;;3.70;97.30;;;;;;5126652;28;20414;-82
2020/12/01 18:33:14;;;;;;;47.97;20.90;;;3.70;97.30;;;;;;5129339;28;20901;-82
2020/12/01 18:35:42;;;;;;;66.07;28.97;;;3.70;97.30;;;;;;5127268;28;20925;-83
2020/12/01 18:38:12;;;;;;;48.30;23.43;;;3.60;97.30;;;;;;5130021;28;20494;-82
2020/12/01 18:40:40;;;;;;;43.53;19.10;;;3.60;97.30;;;;;;5130270;28;20416;-82
2020/12/01 18:43:30;;;;;;;50.53;21.23;;;3.60;97.30;;;;;;5129830;28;20432;-82
2020/12/01 18:45:59;;;;;;;47.40;21.10;;;3.60;97.30;;;;;;5124852;28;20396;-82
2020/12/01 18:48:27;;;;;;;44.30;20.33;;;3.60;97.30;;;;;;5129274;28;20416;-82
2020/12/01 18:50:53;;;;;;;48.37;20.37;;;3.60;97.30;;;;;;5130258;28;20435;-81
2020/12/01 18:53:27;;;;;;;47.13;20.30;;;3.60;97.30;;;;;;5128776;28;20458;-82
2020/12/01 18:55:55;;;;;;;51.10;22.33;;;3.60;97.30;;;;;;5131069;28;20166;-82
2020/12/01 18:58:24;;;;;;;46.70;20.23;;;3.60;97.30;;;;;;5130625;28;20952;-82
2020/12/01 19:00:50;;;;;;;48.23;20.60;;;3.60;97.30;;;;;;5128708;28;20428;-82
2020/12/01 19:03:24;;;;;;;48.83;20.17;;;3.60;97.30;;;;;;5129793;28;20408;-82
2020/12/01 19:05:51;;;;;;;45.37;19.90;;;3.60;97.30;;;;;;5128739;28;20974;-81
2020/12/01 19:08:19;;;;;;;46.73;21.40;;;3.60;97.30;;;;;;5128158;28;20407;-83
2020/12/01 19:10:45;;;;;;;46.87;20.17;;;3.60;97.30;;;;;;5127544;28;20442;-82
2020/12/01 19:13:11;;;;;;;50.07;22.07;;;3.60;97.30;;;;;;5123116;28;20411;-82
2020/12/01 19:15:37;;;;;;;50.13;22.03;;;3.60;97.30;;;;;;5123703;28;20428;-82
2020/12/01 19:18:04;;;;;;;42.47;22.90;;;3.60;97.30;;;;;;5122681;28;20488;-82
2020/12/01 19:20:29;;;;;;;55.23;25.60;;;3.50;97.30;;;;;;5121987;28;20538;-82
2020/12/01 19:22:55;;;;;;;45.30;22.00;;;3.50;97.30;;;;;;5123337;28;20418;-82
2020/12/01 19:25:22;;;;;;;38.47;18.17;;;3.50;97.30;;;;;;5123064;28;20176;-82
2020/12/01 19:27:48;;;;;;;43.60;20.07;;;3.50;97.30;;;;;;5123313;28;20185;-82
2020/12/01 19:30:14;;;;;;;50.70;20.40;;;3.50;97.30;;;;;;5122864;28;20416;-82
2020/12/01 19:32:40;;;;;;;44.80;19.17;;;3.50;97.30;;;;;;5122133;28;20512;-82
2020/12/01 19:35:06;;;;;;;43.10;20.43;;;3.50;97.30;;;;;;5122832;28;20435;-82
2020/12/01 19:37:33;;;;;;;56.40;22.10;;;3.50;97.30;;;;;;5122216;28;20201;-83
2020/12/01 19:39:59;;;;;;;45.00;21.00;;;3.50;97.30;;;;;;5122686;28;20419;-83
2020/12/01 19:42:25;;;;;;;46.90;20.90;;;3.50;97.30;;;;;;5121672;28;20956;-82
2020/12/01 19:44:51;;;;;;;50.13;22.03;;;3.50;97.30;;;;;;5122555;28;20170;-83